sensor_id;sensor_type;location;lat;lon;timestamp;P1;durP1;ratioP1;P2;durP2;ratioP2
40076;SDS011;25777;47.824;18.982;2023-11-22T00:01:30;28.23;;;11.87;;
40076;SDS011;25777;47.824;18.982;2023-11-22T00:03:56;29.20;;;12.53;;
40076;SDS011;25777;47.824;18.982;2023-11-22T00:06:22;30.33;;;12.03;;
40076;SDS011;25777;47.824;18.982;2023-11-22T00:08:48;27.57;;;10.87;;
40076;SDS011;25777;47.824;18.982;2023-11-22T00:11:14;28.10;;;11.50;;
40076;SDS011;25777;47.824;18.982;2023-11-22T00:13:40;26.70;;;11.33;;
40076;SDS011;25777;47.824;18.982;2023-11-22T00:16:06;32.43;;;10.63;;
40076;SDS011;25777;47.824;18.982;2023-11-22T00:18:34;37.43;;;12.00;;
40076;SDS011;25777;47.824;18.982;2023-11-22T00:21:02;30.57;;;11.90;;
40076;SDS011;25777;47.824;18.982;2023-11-22T00:23:28;32.90;;;12.07;;
40076;SDS011;25777;47.824;18.982;2023-11-22T00:25:55;40.23;;;10.60;;
40076;SDS011;25777;47.824;18.982;2023-11-22T00:28:24;29.90;;;12.03;;
40076;SDS011;25777;47.824;18.982;2023-11-22T00:30:49;30.97;;;12.17;;
40076;SDS011;25777;47.824;18.982;2023-11-22T00:33:15;28.73;;;10.83;;
40076;SDS011;25777;47.824;18.982;2023-11-22T00:35:43;27.10;;;11.13;;
40076;SDS011;25777;47.824;18.982;2023-11-22T00:38:09;32.93;;;12.33;;
40076;SDS011;25777;47.824;18.982;2023-11-22T00:40:34;39.93;;;12.20;;
40076;SDS011;25777;47.824;18.982;2023-11-22T00:43:00;30.93;;;11.47;;
40076;SDS011;25777;47.824;18.982;2023-11-22T00:45:26;27.23;;;10.83;;
40076;SDS011;25777;47.824;18.982;2023-11-22T00:47:52;25.77;;;10.57;;
40076;SDS011;25777;47.824;18.982;2023-11-22T00:50:18;31.47;;;10.90;;
40076;SDS011;25777;47.824;18.982;2023-11-22T00:52:46;29.63;;;8.97;;
40076;SDS011;25777;47.824;18.982;2023-11-22T00:55:12;22.53;;;9.43;;
40076;SDS011;25777;47.824;18.982;2023-11-22T00:57:39;24.10;;;8.97;;
40076;SDS011;25777;47.824;18.982;2023-11-22T01:00:06;29.03;;;9.27;;
40076;SDS011;25777;47.824;18.982;2023-11-22T01:02:36;26.37;;;9.23;;
40076;SDS011;25777;47.824;18.982;2023-11-22T01:05:04;26.77;;;9.87;;
40076;SDS011;25777;47.824;18.982;2023-11-22T01:07:34;23.00;;;8.47;;
40076;SDS011;25777;47.824;18.982;2023-11-22T01:10:00;40.40;;;8.53;;
40076;SDS011;25777;47.824;18.982;2023-11-22T01:12:26;41.10;;;8.00;;
40076;SDS011;25777;47.824;18.982;2023-11-22T01:14:52;26.77;;;8.47;;
40076;SDS011;25777;47.824;18.982;2023-11-22T01:17:18;19.83;;;7.57;;
40076;SDS011;25777;47.824;18.982;2023-11-22T01:19:44;64.50;;;8.80;;
40076;SDS011;25777;47.824;18.982;2023-11-22T01:22:09;58.50;;;8.47;;
40076;SDS011;25777;47.824;18.982;2023-11-22T01:24:35;43.40;;;7.17;;
40076;SDS011;25777;47.824;18.982;2023-11-22T01:27:02;19.00;;;7.57;;
40076;SDS011;25777;47.824;18.982;2023-11-22T01:29:29;17.87;;;7.40;;
40076;SDS011;25777;47.824;18.982;2023-11-22T01:31:54;37.90;;;8.13;;
40076;SDS011;25777;47.824;18.982;2023-11-22T01:34:20;20.67;;;7.83;;
40076;SDS011;25777;47.824;18.982;2023-11-22T01:36:49;22.97;;;8.73;;
40076;SDS011;25777;47.824;18.982;2023-11-22T01:39:15;24.10;;;7.87;;
40076;SDS011;25777;47.824;18.982;2023-11-22T01:41:41;28.47;;;8.33;;
40076;SDS011;25777;47.824;18.982;2023-11-22T01:44:09;29.27;;;6.70;;
40076;SDS011;25777;47.824;18.982;2023-11-22T01:46:36;23.13;;;6.90;;
40076;SDS011;25777;47.824;18.982;2023-11-22T01:49:03;29.87;;;6.90;;
40076;SDS011;25777;47.824;18.982;2023-11-22T01:51:29;23.73;;;6.70;;
40076;SDS011;25777;47.824;18.982;2023-11-22T01:53:55;15.40;;;6.53;;
40076;SDS011;25777;47.824;18.982;2023-11-22T01:56:23;15.43;;;6.20;;
40076;SDS011;25777;47.824;18.982;2023-11-22T01:58:51;16.77;;;6.50;;
40076;SDS011;25777;47.824;18.982;2023-11-22T02:01:19;14.07;;;5.60;;
40076;SDS011;25777;47.824;18.982;2023-11-22T02:03:45;17.53;;;6.10;;
40076;SDS011;25777;47.824;18.982;2023-11-22T02:06:17;15.43;;;5.67;;
40076;SDS011;25777;47.824;18.982;2023-11-22T02:08:43;30.70;;;5.93;;
40076;SDS011;25777;47.824;18.982;2023-11-22T02:11:09;14.53;;;5.37;;
40076;SDS011;25777;47.824;18.982;2023-11-22T02:13:35;14.90;;;5.90;;
40076;SDS011;25777;47.824;18.982;2023-11-22T02:16:02;15.80;;;5.10;;
40076;SDS011;25777;47.824;18.982;2023-11-22T02:18:28;13.33;;;5.97;;
40076;SDS011;25777;47.824;18.982;2023-11-22T02:20:55;11.33;;;5.43;;
40076;SDS011;25777;47.824;18.982;2023-11-22T02:23:21;12.70;;;5.60;;
40076;SDS011;25777;47.824;18.982;2023-11-22T02:25:47;11.20;;;4.90;;
40076;SDS011;25777;47.824;18.982;2023-11-22T02:28:14;11.30;;;5.00;;
40076;SDS011;25777;47.824;18.982;2023-11-22T02:30:40;12.00;;;5.03;;
40076;SDS011;25777;47.824;18.982;2023-11-22T02:33:06;14.43;;;5.97;;
40076;SDS011;25777;47.824;18.982;2023-11-22T02:35:32;10.73;;;4.67;;
40076;SDS011;25777;47.824;18.982;2023-11-22T02:37:59;10.43;;;4.60;;
40076;SDS011;25777;47.824;18.982;2023-11-22T02:40:25;12.10;;;4.90;;
40076;SDS011;25777;47.824;18.982;2023-11-22T02:42:53;12.53;;;5.33;;
40076;SDS011;25777;47.824;18.982;2023-11-22T02:45:20;11.57;;;4.97;;
40076;SDS011;25777;47.824;18.982;2023-11-22T02:47:49;10.20;;;4.23;;
40076;SDS011;25777;47.824;18.982;2023-11-22T02:50:18;11.60;;;4.83;;
40076;SDS011;25777;47.824;18.982;2023-11-22T02:52:52;13.10;;;5.13;;
40076;SDS011;25777;47.824;18.982;2023-11-22T02:55:18;11.97;;;4.87;;
40076;SDS011;25777;47.824;18.982;2023-11-22T02:57:44;9.83;;;4.33;;
40076;SDS011;25777;47.824;18.982;2023-11-22T03:00:11;13.90;;;5.03;;
40076;SDS011;25777;47.824;18.982;2023-11-22T03:02:42;12.83;;;5.37;;
40076;SDS011;25777;47.824;18.982;2023-11-22T03:05:08;13.77;;;5.30;;
40076;SDS011;25777;47.824;18.982;2023-11-22T03:07:34;13.47;;;5.37;;
40076;SDS011;25777;47.824;18.982;2023-11-22T03:10:01;12.00;;;5.07;;
40076;SDS011;25777;47.824;18.982;2023-11-22T03:12:27;14.47;;;5.67;;
40076;SDS011;25777;47.824;18.982;2023-11-22T03:14:53;12.20;;;4.77;;
40076;SDS011;25777;47.824;18.982;2023-11-22T03:17:23;13.00;;;5.43;;
40076;SDS011;25777;47.824;18.982;2023-11-22T03:19:49;12.03;;;5.23;;
40076;SDS011;25777;47.824;18.982;2023-11-22T03:22:15;14.00;;;5.07;;
40076;SDS011;25777;47.824;18.982;2023-11-22T03:24:41;15.83;;;5.60;;
40076;SDS011;25777;47.824;18.982;2023-11-22T03:27:07;13.87;;;5.73;;
40076;SDS011;25777;47.824;18.982;2023-11-22T03:29:33;12.60;;;5.10;;
40076;SDS011;25777;47.824;18.982;2023-11-22T03:32:00;10.90;;;5.10;;
40076;SDS011;25777;47.824;18.982;2023-11-22T03:34:26;9.53;;;4.50;;
40076;SDS011;25777;47.824;18.982;2023-11-22T03:36:52;13.80;;;6.77;;
40076;SDS011;25777;47.824;18.982;2023-11-22T03:39:18;12.27;;;4.80;;
40076;SDS011;25777;47.824;18.982;2023-11-22T03:41:45;12.70;;;4.80;;
40076;SDS011;25777;47.824;18.982;2023-11-22T03:44:11;14.57;;;5.13;;
40076;SDS011;25777;47.824;18.982;2023-11-22T03:46:37;13.47;;;5.10;;
40076;SDS011;25777;47.824;18.982;2023-11-22T03:49:06;15.17;;;5.23;;
40076;SDS011;25777;47.824;18.982;2023-11-22T03:51:33;13.93;;;4.87;;
40076;SDS011;25777;47.824;18.982;2023-11-22T03:53:59;11.20;;;5.07;;
40076;SDS011;25777;47.824;18.982;2023-11-22T03:56:26;11.50;;;4.90;;
40076;SDS011;25777;47.824;18.982;2023-11-22T03:58:52;11.57;;;4.53;;
40076;SDS011;25777;47.824;18.982;2023-11-22T04:01:18;12.27;;;4.73;;
40076;SDS011;25777;47.824;18.982;2023-11-22T04:03:45;11.33;;;4.90;;
40076;SDS011;25777;47.824;18.982;2023-11-22T04:06:16;11.90;;;4.73;;
40076;SDS011;25777;47.824;18.982;2023-11-22T04:08:42;12.40;;;4.33;;
40076;SDS011;25777;47.824;18.982;2023-11-22T04:11:09;10.30;;;4.43;;
40076;SDS011;25777;47.824;18.982;2023-11-22T04:13:35;11.50;;;4.43;;
40076;SDS011;25777;47.824;18.982;2023-11-22T04:16:02;10.23;;;4.13;;
40076;SDS011;25777;47.824;18.982;2023-11-22T04:18:28;10.60;;;4.60;;
40076;SDS011;25777;47.824;18.982;2023-11-22T04:20:53;8.93;;;4.17;;
40076;SDS011;25777;47.824;18.982;2023-11-22T04:23:20;10.23;;;4.03;;
40076;SDS011;25777;47.824;18.982;2023-11-22T04:25:46;9.47;;;4.33;;
40076;SDS011;25777;47.824;18.982;2023-11-22T04:28:15;9.63;;;4.30;;
40076;SDS011;25777;47.824;18.982;2023-11-22T04:30:42;10.97;;;4.37;;
40076;SDS011;25777;47.824;18.982;2023-11-22T04:33:07;14.20;;;4.30;;
40076;SDS011;25777;47.824;18.982;2023-11-22T04:35:33;12.40;;;5.17;;
40076;SDS011;25777;47.824;18.982;2023-11-22T04:38:02;9.70;;;4.77;;
40076;SDS011;25777;47.824;18.982;2023-11-22T04:40:29;11.83;;;4.67;;
40076;SDS011;25777;47.824;18.982;2023-11-22T04:42:55;13.40;;;5.40;;
40076;SDS011;25777;47.824;18.982;2023-11-22T04:45:21;11.83;;;4.23;;
40076;SDS011;25777;47.824;18.982;2023-11-22T04:47:46;8.67;;;3.97;;
40076;SDS011;25777;47.824;18.982;2023-11-22T04:50:12;11.77;;;4.07;;
40076;SDS011;25777;47.824;18.982;2023-11-22T04:52:38;9.73;;;4.03;;
40076;SDS011;25777;47.824;18.982;2023-11-22T04:55:04;12.40;;;3.73;;
40076;SDS011;25777;47.824;18.982;2023-11-22T04:57:30;8.87;;;3.90;;
40076;SDS011;25777;47.824;18.982;2023-11-22T04:59:56;12.33;;;4.20;;
40076;SDS011;25777;47.824;18.982;2023-11-22T05:02:22;11.17;;;3.87;;
40076;SDS011;25777;47.824;18.982;2023-11-22T05:04:48;9.20;;;3.83;;
40076;SDS011;25777;47.824;18.982;2023-11-22T05:07:15;9.43;;;4.03;;
40076;SDS011;25777;47.824;18.982;2023-11-22T05:09:41;10.73;;;4.93;;
40076;SDS011;25777;47.824;18.982;2023-11-22T05:12:09;9.63;;;4.23;;
40076;SDS011;25777;47.824;18.982;2023-11-22T05:14:35;12.03;;;5.00;;
40076;SDS011;25777;47.824;18.982;2023-11-22T05:17:01;10.23;;;5.03;;
40076;SDS011;25777;47.824;18.982;2023-11-22T05:19:27;13.43;;;4.73;;
40076;SDS011;25777;47.824;18.982;2023-11-22T05:21:53;13.93;;;4.73;;
40076;SDS011;25777;47.824;18.982;2023-11-22T05:24:19;11.43;;;4.40;;
40076;SDS011;25777;47.824;18.982;2023-11-22T05:26:45;10.60;;;4.57;;
40076;SDS011;25777;47.824;18.982;2023-11-22T05:29:11;10.17;;;4.80;;
40076;SDS011;25777;47.824;18.982;2023-11-22T05:31:37;13.43;;;4.57;;
40076;SDS011;25777;47.824;18.982;2023-11-22T05:34:03;14.37;;;4.37;;
40076;SDS011;25777;47.824;18.982;2023-11-22T05:36:29;19.27;;;4.43;;
40076;SDS011;25777;47.824;18.982;2023-11-22T05:38:55;11.73;;;4.43;;
40076;SDS011;25777;47.824;18.982;2023-11-22T05:41:24;9.63;;;4.20;;
40076;SDS011;25777;47.824;18.982;2023-11-22T05:43:53;10.97;;;3.97;;
40076;SDS011;25777;47.824;18.982;2023-11-22T05:46:19;15.97;;;4.40;;
40076;SDS011;25777;47.824;18.982;2023-11-22T05:48:53;45.50;;;4.27;;
40076;SDS011;25777;47.824;18.982;2023-11-22T05:51:19;16.53;;;3.97;;
40076;SDS011;25777;47.824;18.982;2023-11-22T05:53:45;7.23;;;3.07;;
40076;SDS011;25777;47.824;18.982;2023-11-22T05:56:11;8.53;;;3.70;;
40076;SDS011;25777;47.824;18.982;2023-11-22T05:58:38;12.67;;;3.47;;
40076;SDS011;25777;47.824;18.982;2023-11-22T06:01:07;8.47;;;3.43;;
40076;SDS011;25777;47.824;18.982;2023-11-22T06:03:36;22.03;;;3.33;;
40076;SDS011;25777;47.824;18.982;2023-11-22T06:06:04;9.90;;;3.43;;
40076;SDS011;25777;47.824;18.982;2023-11-22T06:08:30;6.07;;;2.60;;
40076;SDS011;25777;47.824;18.982;2023-11-22T06:10:56;7.33;;;2.80;;
40076;SDS011;25777;47.824;18.982;2023-11-22T06:13:24;5.90;;;2.80;;
40076;SDS011;25777;47.824;18.982;2023-11-22T06:15:50;6.40;;;2.77;;
40076;SDS011;25777;47.824;18.982;2023-11-22T06:18:17;7.17;;;3.20;;
40076;SDS011;25777;47.824;18.982;2023-11-22T06:20:44;7.50;;;2.87;;
40076;SDS011;25777;47.824;18.982;2023-11-22T06:23:10;7.73;;;2.83;;
40076;SDS011;25777;47.824;18.982;2023-11-22T06:25:36;7.30;;;3.23;;
40076;SDS011;25777;47.824;18.982;2023-11-22T06:28:02;7.17;;;2.90;;
40076;SDS011;25777;47.824;18.982;2023-11-22T06:30:28;5.60;;;2.57;;
40076;SDS011;25777;47.824;18.982;2023-11-22T06:32:55;8.33;;;3.03;;
40076;SDS011;25777;47.824;18.982;2023-11-22T06:35:21;7.23;;;3.20;;
40076;SDS011;25777;47.824;18.982;2023-11-22T06:37:48;6.93;;;2.80;;
40076;SDS011;25777;47.824;18.982;2023-11-22T06:40:14;5.37;;;2.67;;
40076;SDS011;25777;47.824;18.982;2023-11-22T06:42:42;8.30;;;3.03;;
40076;SDS011;25777;47.824;18.982;2023-11-22T06:45:08;8.00;;;3.23;;
40076;SDS011;25777;47.824;18.982;2023-11-22T06:47:41;6.90;;;2.83;;
40076;SDS011;25777;47.824;18.982;2023-11-22T06:50:07;8.40;;;3.17;;
40076;SDS011;25777;47.824;18.982;2023-11-22T06:52:37;7.87;;;3.37;;
40076;SDS011;25777;47.824;18.982;2023-11-22T06:55:07;6.67;;;2.97;;
40076;SDS011;25777;47.824;18.982;2023-11-22T06:57:34;6.53;;;2.70;;
40076;SDS011;25777;47.824;18.982;2023-11-22T07:00:06;8.10;;;3.03;;
40076;SDS011;25777;47.824;18.982;2023-11-22T07:02:34;6.70;;;2.97;;
40076;SDS011;25777;47.824;18.982;2023-11-22T07:05:01;5.13;;;2.27;;
40076;SDS011;25777;47.824;18.982;2023-11-22T07:07:34;4.25;;;2.25;;
40076;SDS011;25777;47.824;18.982;2023-11-22T07:10:01;5.27;;;2.50;;
40076;SDS011;25777;47.824;18.982;2023-11-22T07:12:27;6.53;;;3.00;;
40076;SDS011;25777;47.824;18.982;2023-11-22T07:14:54;7.37;;;3.00;;
40076;SDS011;25777;47.824;18.982;2023-11-22T07:17:20;6.87;;;2.93;;
40076;SDS011;25777;47.824;18.982;2023-11-22T07:19:47;6.77;;;2.70;;
40076;SDS011;25777;47.824;18.982;2023-11-22T07:22:14;8.27;;;3.13;;
40076;SDS011;25777;47.824;18.982;2023-11-22T07:24:47;9.73;;;2.93;;
40076;SDS011;25777;47.824;18.982;2023-11-22T07:27:16;6.13;;;2.73;;
40076;SDS011;25777;47.824;18.982;2023-11-22T07:29:43;6.67;;;2.83;;
40076;SDS011;25777;47.824;18.982;2023-11-22T07:32:09;5.03;;;2.50;;
40076;SDS011;25777;47.824;18.982;2023-11-22T07:34:36;7.23;;;2.33;;
40076;SDS011;25777;47.824;18.982;2023-11-22T07:37:04;8.57;;;2.80;;
40076;SDS011;25777;47.824;18.982;2023-11-22T07:39:36;6.57;;;2.30;;
40076;SDS011;25777;47.824;18.982;2023-11-22T07:42:03;5.23;;;2.50;;
40076;SDS011;25777;47.824;18.982;2023-11-22T07:44:32;4.10;;;2.37;;
40076;SDS011;25777;47.824;18.982;2023-11-22T07:47:01;5.30;;;2.40;;
40076;SDS011;25777;47.824;18.982;2023-11-22T07:49:33;7.53;;;3.00;;
40076;SDS011;25777;47.824;18.982;2023-11-22T07:52:03;4.00;;;2.23;;
40076;SDS011;25777;47.824;18.982;2023-11-22T07:54:30;6.57;;;2.50;;
40076;SDS011;25777;47.824;18.982;2023-11-22T07:56:57;4.80;;;2.43;;
40076;SDS011;25777;47.824;18.982;2023-11-22T07:59:23;7.53;;;2.53;;
40076;SDS011;25777;47.824;18.982;2023-11-22T08:01:49;4.67;;;2.47;;
40076;SDS011;25777;47.824;18.982;2023-11-22T08:04:15;5.20;;;2.27;;
40076;SDS011;25777;47.824;18.982;2023-11-22T08:06:43;6.43;;;2.77;;
40076;SDS011;25777;47.824;18.982;2023-11-22T08:09:09;5.63;;;2.63;;
40076;SDS011;25777;47.824;18.982;2023-11-22T08:11:35;5.43;;;2.03;;
40076;SDS011;25777;47.824;18.982;2023-11-22T08:14:02;4.60;;;2.20;;
40076;SDS011;25777;47.824;18.982;2023-11-22T08:16:29;6.27;;;2.53;;
40076;SDS011;25777;47.824;18.982;2023-11-22T08:18:55;5.10;;;2.17;;
40076;SDS011;25777;47.824;18.982;2023-11-22T08:21:21;6.53;;;2.60;;
40076;SDS011;25777;47.824;18.982;2023-11-22T08:23:48;7.07;;;2.70;;
40076;SDS011;25777;47.824;18.982;2023-11-22T08:26:14;8.27;;;2.97;;
40076;SDS011;25777;47.824;18.982;2023-11-22T08:28:41;7.93;;;3.43;;
40076;SDS011;25777;47.824;18.982;2023-11-22T08:31:07;8.50;;;3.57;;
40076;SDS011;25777;47.824;18.982;2023-11-22T08:33:36;10.37;;;3.77;;
40076;SDS011;25777;47.824;18.982;2023-11-22T08:36:04;10.83;;;3.80;;
40076;SDS011;25777;47.824;18.982;2023-11-22T08:38:31;9.10;;;3.10;;
40076;SDS011;25777;47.824;18.982;2023-11-22T08:41:05;9.23;;;3.63;;
40076;SDS011;25777;47.824;18.982;2023-11-22T08:43:32;7.88;;;3.40;;
40076;SDS011;25777;47.824;18.982;2023-11-22T08:45:59;8.30;;;3.37;;
40076;SDS011;25777;47.824;18.982;2023-11-22T08:48:25;7.47;;;2.90;;
40076;SDS011;25777;47.824;18.982;2023-11-22T08:50:51;6.80;;;2.90;;
40076;SDS011;25777;47.824;18.982;2023-11-22T08:53:20;6.33;;;2.77;;
40076;SDS011;25777;47.824;18.982;2023-11-22T08:55:49;5.13;;;2.17;;
40076;SDS011;25777;47.824;18.982;2023-11-22T08:58:15;4.47;;;2.23;;
40076;SDS011;25777;47.824;18.982;2023-11-22T09:00:41;3.93;;;2.00;;
40076;SDS011;25777;47.824;18.982;2023-11-22T09:03:10;8.83;;;2.10;;
40076;SDS011;25777;47.824;18.982;2023-11-22T09:05:41;4.10;;;1.73;;
40076;SDS011;25777;47.824;18.982;2023-11-22T09:08:07;3.20;;;1.83;;
40076;SDS011;25777;47.824;18.982;2023-11-22T09:10:38;3.10;;;1.83;;
40076;SDS011;25777;47.824;18.982;2023-11-22T09:13:05;3.57;;;2.03;;
40076;SDS011;25777;47.824;18.982;2023-11-22T09:15:31;4.77;;;2.13;;
40076;SDS011;25777;47.824;18.982;2023-11-22T09:17:59;10.33;;;2.47;;
40076;SDS011;25777;47.824;18.982;2023-11-22T09:20:25;4.27;;;1.97;;
40076;SDS011;25777;47.824;18.982;2023-11-22T09:22:51;4.63;;;2.20;;
40076;SDS011;25777;47.824;18.982;2023-11-22T09:27:45;8.83;;;2.63;;
40076;SDS011;25777;47.824;18.982;2023-11-22T09:30:16;6.13;;;2.60;;
40076;SDS011;25777;47.824;18.982;2023-11-22T09:33:03;6.40;;;3.40;;
40076;SDS011;25777;47.824;18.982;2023-11-22T09:35:34;6.57;;;2.93;;
40076;SDS011;25777;47.824;18.982;2023-11-22T09:38:01;7.83;;;3.23;;
40076;SDS011;25777;47.824;18.982;2023-11-22T09:40:30;6.80;;;3.47;;
40076;SDS011;25777;47.824;18.982;2023-11-22T09:42:59;8.07;;;3.40;;
40076;SDS011;25777;47.824;18.982;2023-11-22T09:45:27;7.53;;;3.40;;
40076;SDS011;25777;47.824;18.982;2023-11-22T09:47:54;8.33;;;4.13;;
40076;SDS011;25777;47.824;18.982;2023-11-22T09:50:23;6.27;;;3.03;;
40076;SDS011;25777;47.824;18.982;2023-11-22T09:53:00;6.37;;;3.00;;
40076;SDS011;25777;47.824;18.982;2023-11-22T09:55:29;8.90;;;3.57;;
40076;SDS011;25777;47.824;18.982;2023-11-22T09:57:57;6.07;;;2.97;;
40076;SDS011;25777;47.824;18.982;2023-11-22T10:00:26;7.07;;;3.20;;
40076;SDS011;25777;47.824;18.982;2023-11-22T10:02:55;6.10;;;3.40;;
40076;SDS011;25777;47.824;18.982;2023-11-22T10:05:23;7.77;;;3.27;;
40076;SDS011;25777;47.824;18.982;2023-11-22T10:07:49;6.57;;;3.60;;
40076;SDS011;25777;47.824;18.982;2023-11-22T10:10:16;7.63;;;3.83;;
40076;SDS011;25777;47.824;18.982;2023-11-22T10:12:47;6.37;;;3.17;;
40076;SDS011;25777;47.824;18.982;2023-11-22T10:15:14;8.20;;;3.50;;
40076;SDS011;25777;47.824;18.982;2023-11-22T10:17:57;8.10;;;3.93;;
40076;SDS011;25777;47.824;18.982;2023-11-22T10:20:38;9.53;;;4.30;;
40076;SDS011;25777;47.824;18.982;2023-11-22T10:23:13;8.27;;;3.93;;
40076;SDS011;25777;47.824;18.982;2023-11-22T10:25:58;7.27;;;3.50;;
40076;SDS011;25777;47.824;18.982;2023-11-22T10:28:25;7.17;;;3.80;;
40076;SDS011;25777;47.824;18.982;2023-11-22T10:30:52;6.60;;;3.40;;
40076;SDS011;25777;47.824;18.982;2023-11-22T10:33:18;7.17;;;3.40;;
40076;SDS011;25777;47.824;18.982;2023-11-22T10:35:48;10.90;;;4.03;;
40076;SDS011;25777;47.824;18.982;2023-11-22T10:38:19;10.07;;;4.17;;
40076;SDS011;25777;47.824;18.982;2023-11-22T10:40:45;11.07;;;3.97;;
40076;SDS011;25777;47.824;18.982;2023-11-22T10:43:13;8.93;;;4.43;;
40076;SDS011;25777;47.824;18.982;2023-11-22T10:45:40;8.50;;;3.60;;
40076;SDS011;25777;47.824;18.982;2023-11-22T10:48:11;10.70;;;4.20;;
40076;SDS011;25777;47.824;18.982;2023-11-22T10:50:41;9.13;;;4.00;;
40076;SDS011;25777;47.824;18.982;2023-11-22T10:53:10;8.70;;;3.93;;
40076;SDS011;25777;47.824;18.982;2023-11-22T10:55:46;11.70;;;4.13;;
40076;SDS011;25777;47.824;18.982;2023-11-22T10:58:14;8.38;;;4.05;;
40076;SDS011;25777;47.824;18.982;2023-11-22T11:00:41;8.93;;;4.03;;
40076;SDS011;25777;47.824;18.982;2023-11-22T11:03:14;9.50;;;4.20;;
40076;SDS011;25777;47.824;18.982;2023-11-22T11:05:45;8.67;;;4.13;;
40076;SDS011;25777;47.824;18.982;2023-11-22T11:08:23;9.10;;;3.90;;
40076;SDS011;25777;47.824;18.982;2023-11-22T11:10:53;11.67;;;4.27;;
40076;SDS011;25777;47.824;18.982;2023-11-22T11:13:23;10.77;;;4.13;;
40076;SDS011;25777;47.824;18.982;2023-11-22T11:15:50;8.03;;;3.63;;
40076;SDS011;25777;47.824;18.982;2023-11-22T11:18:18;9.53;;;4.07;;
40076;SDS011;25777;47.824;18.982;2023-11-22T11:20:45;7.70;;;4.17;;
40076;SDS011;25777;47.824;18.982;2023-11-22T11:23:21;9.37;;;4.50;;
40076;SDS011;25777;47.824;18.982;2023-11-22T11:25:50;10.17;;;4.50;;
40076;SDS011;25777;47.824;18.982;2023-11-22T11:28:18;8.60;;;4.17;;
40076;SDS011;25777;47.824;18.982;2023-11-22T11:30:45;8.97;;;4.27;;
40076;SDS011;25777;47.824;18.982;2023-11-22T11:33:14;8.27;;;4.07;;
40076;SDS011;25777;47.824;18.982;2023-11-22T11:35:48;10.33;;;4.17;;
40076;SDS011;25777;47.824;18.982;2023-11-22T11:38:15;10.90;;;4.87;;
40076;SDS011;25777;47.824;18.982;2023-11-22T11:40:48;9.23;;;4.40;;
40076;SDS011;25777;47.824;18.982;2023-11-22T11:43:15;11.53;;;4.53;;
40076;SDS011;25777;47.824;18.982;2023-11-22T11:45:45;9.33;;;4.17;;
40076;SDS011;25777;47.824;18.982;2023-11-22T11:48:15;8.33;;;4.40;;
40076;SDS011;25777;47.824;18.982;2023-11-22T11:50:42;8.87;;;3.77;;
40076;SDS011;25777;47.824;18.982;2023-11-22T11:53:11;8.50;;;4.07;;
40076;SDS011;25777;47.824;18.982;2023-11-22T11:55:37;12.80;;;5.50;;
40076;SDS011;25777;47.824;18.982;2023-11-22T11:58:07;11.93;;;6.13;;
40076;SDS011;25777;47.824;18.982;2023-11-22T12:00:36;11.50;;;5.33;;
40076;SDS011;25777;47.824;18.982;2023-11-22T12:03:06;13.83;;;5.13;;
40076;SDS011;25777;47.824;18.982;2023-11-22T12:05:34;10.90;;;5.50;;
40076;SDS011;25777;47.824;18.982;2023-11-22T12:08:01;13.00;;;6.03;;
40076;SDS011;25777;47.824;18.982;2023-11-22T12:10:28;11.67;;;5.13;;
40076;SDS011;25777;47.824;18.982;2023-11-22T12:12:54;11.40;;;5.63;;
40076;SDS011;25777;47.824;18.982;2023-11-22T12:15:19;13.70;;;5.67;;
40076;SDS011;25777;47.824;18.982;2023-11-22T12:17:48;13.77;;;5.87;;
40076;SDS011;25777;47.824;18.982;2023-11-22T12:20:16;15.83;;;6.93;;
40076;SDS011;25777;47.824;18.982;2023-11-22T12:22:46;15.33;;;7.90;;
40076;SDS011;25777;47.824;18.982;2023-11-22T12:25:13;13.03;;;6.00;;
40076;SDS011;25777;47.824;18.982;2023-11-22T12:27:42;15.20;;;6.40;;
40076;SDS011;25777;47.824;18.982;2023-11-22T12:30:27;15.07;;;7.13;;
40076;SDS011;25777;47.824;18.982;2023-11-22T12:33:07;14.40;;;6.60;;
40076;SDS011;25777;47.824;18.982;2023-11-22T12:35:35;18.57;;;7.50;;
40076;SDS011;25777;47.824;18.982;2023-11-22T12:38:02;16.93;;;7.23;;
40076;SDS011;25777;47.824;18.982;2023-11-22T12:40:30;18.67;;;7.93;;
40076;SDS011;25777;47.824;18.982;2023-11-22T12:42:58;16.70;;;7.80;;
40076;SDS011;25777;47.824;18.982;2023-11-22T12:45:26;18.80;;;8.10;;
40076;SDS011;25777;47.824;18.982;2023-11-22T12:47:54;15.63;;;7.90;;
40076;SDS011;25777;47.824;18.982;2023-11-22T12:50:31;20.27;;;8.83;;
40076;SDS011;25777;47.824;18.982;2023-11-22T12:52:59;21.30;;;10.30;;
40076;SDS011;25777;47.824;18.982;2023-11-22T12:55:33;23.97;;;10.50;;
40076;SDS011;25777;47.824;18.982;2023-11-22T12:57:59;23.33;;;10.97;;
40076;SDS011;25777;47.824;18.982;2023-11-22T13:00:27;21.47;;;10.27;;
40076;SDS011;25777;47.824;18.982;2023-11-22T13:02:54;26.63;;;11.50;;
40076;SDS011;25777;47.824;18.982;2023-11-22T13:05:22;23.37;;;11.00;;
40076;SDS011;25777;47.824;18.982;2023-11-22T13:07:49;26.00;;;10.90;;
40076;SDS011;25777;47.824;18.982;2023-11-22T13:10:15;22.03;;;10.67;;
40076;SDS011;25777;47.824;18.982;2023-11-22T13:12:43;21.30;;;9.67;;
40076;SDS011;25777;47.824;18.982;2023-11-22T13:15:10;18.97;;;9.77;;
40076;SDS011;25777;47.824;18.982;2023-11-22T13:17:39;23.57;;;10.53;;
40076;SDS011;25777;47.824;18.982;2023-11-22T13:20:08;19.93;;;9.33;;
40076;SDS011;25777;47.824;18.982;2023-11-22T13:22:43;22.77;;;10.33;;
40076;SDS011;25777;47.824;18.982;2023-11-22T13:25:12;24.70;;;10.40;;
40076;SDS011;25777;47.824;18.982;2023-11-22T13:27:47;21.17;;;10.53;;
40076;SDS011;25777;47.824;18.982;2023-11-22T13:30:14;23.07;;;10.50;;
40076;SDS011;25777;47.824;18.982;2023-11-22T13:32:40;22.33;;;10.30;;
40076;SDS011;25777;47.824;18.982;2023-11-22T13:35:08;22.60;;;10.27;;
40076;SDS011;25777;47.824;18.982;2023-11-22T13:37:49;21.43;;;9.87;;
40076;SDS011;25777;47.824;18.982;2023-11-22T13:40:19;22.87;;;10.53;;
40076;SDS011;25777;47.824;18.982;2023-11-22T13:42:50;20.37;;;9.27;;
40076;SDS011;25777;47.824;18.982;2023-11-22T13:45:19;23.03;;;9.80;;
40076;SDS011;25777;47.824;18.982;2023-11-22T13:47:54;22.13;;;10.60;;
40076;SDS011;25777;47.824;18.982;2023-11-22T13:50:31;20.40;;;9.27;;
40076;SDS011;25777;47.824;18.982;2023-11-22T13:52:58;20.73;;;10.20;;
40076;SDS011;25777;47.824;18.982;2023-11-22T13:55:24;20.60;;;9.23;;
40076;SDS011;25777;47.824;18.982;2023-11-22T13:57:51;20.07;;;9.17;;
40076;SDS011;25777;47.824;18.982;2023-11-22T14:00:18;19.33;;;8.97;;
40076;SDS011;25777;47.824;18.982;2023-11-22T14:02:51;20.23;;;9.50;;
40076;SDS011;25777;47.824;18.982;2023-11-22T14:05:24;19.73;;;9.23;;
40076;SDS011;25777;47.824;18.982;2023-11-22T14:07:50;18.77;;;9.63;;
40076;SDS011;25777;47.824;18.982;2023-11-22T14:10:17;19.30;;;8.77;;
40076;SDS011;25777;47.824;18.982;2023-11-22T14:12:43;19.80;;;8.83;;
40076;SDS011;25777;47.824;18.982;2023-11-22T14:15:11;20.40;;;8.70;;
40076;SDS011;25777;47.824;18.982;2023-11-22T14:17:37;21.53;;;10.10;;
40076;SDS011;25777;47.824;18.982;2023-11-22T14:20:05;18.97;;;8.43;;
40076;SDS011;25777;47.824;18.982;2023-11-22T14:22:34;19.00;;;8.90;;
40076;SDS011;25777;47.824;18.982;2023-11-22T14:25:01;17.43;;;8.07;;
40076;SDS011;25777;47.824;18.982;2023-11-22T14:27:27;16.73;;;8.40;;
40076;SDS011;25777;47.824;18.982;2023-11-22T14:29:55;22.87;;;9.37;;
40076;SDS011;25777;47.824;18.982;2023-11-22T14:32:22;19.03;;;7.73;;